Time;durP1;ratioP1;P1;durP2;ratioP2;P2;SDS_P1;SDS_P2;PMS_P1;PMS_P2;Temp;Humidity;BMP_temperature;BMP_pressure;BME280_temperature;BME280_humidity;BME280_pressure;Samples;Min_cycle;Max_cycle;Signal;HPM_P1;HPM_P2
2022/03/29 00:00:16;;;;;;;8.73;5.50;;;11.20;99.90;;;;;;5082938;28;20460;-71
2022/03/29 00:02:43;;;;;;;13.00;6.40;;;11.30;99.90;;;;;;5078016;28;20556;-71
2022/03/29 00:05:10;;;;;;;19.77;6.97;;;11.30;99.90;;;;;;5066703;28;20453;-71
2022/03/29 00:07:38;;;;;;;21.33;7.37;;;11.30;99.90;;;;;;5081930;28;20519;-71
2022/03/29 00:10:06;;;;;;;14.50;7.67;;;11.20;99.90;;;;;;5078452;28;20520;-71
2022/03/29 00:12:34;;;;;;;18.00;6.90;;;11.20;99.90;;;;;;5081048;28;20491;-71
2022/03/29 00:15:01;;;;;;;12.80;7.23;;;11.20;99.90;;;;;;5079029;28;20569;-71
2022/03/29 00:17:27;;;;;;;11.90;7.10;;;11.20;99.90;;;;;;5076410;28;20444;-71
2022/03/29 00:19:54;;;;;;;17.20;8.17;;;11.10;99.90;;;;;;5077368;28;20473;-71
2022/03/29 00:22:20;;;;;;;14.13;7.00;;;11.10;99.90;;;;;;5076036;28;20529;-71
2022/03/29 00:24:49;;;;;;;14.07;6.93;;;11.00;99.90;;;;;;5080311;28;20927;-71
2022/03/29 00:27:15;;;;;;;14.93;8.20;;;11.10;99.90;;;;;;5078656;28;20491;-71
2022/03/29 00:29:42;;;;;;;14.37;8.20;;;11.20;99.90;;;;;;5082357;28;20420;-71
2022/03/29 00:32:08;;;;;;;11.57;7.23;;;11.20;99.90;;;;;;5081622;28;20455;-71
2022/03/29 00:34:36;;;;;;;16.80;8.70;;;11.10;99.90;;;;;;5081118;28;20441;-70
2022/03/29 00:37:07;;;;;;;13.67;8.73;;;11.10;99.90;;;;;;5074829;28;20466;-70
2022/03/29 00:39:34;;;;;;;17.23;8.00;;;11.10;99.90;;;;;;5080817;28;20452;-70
2022/03/29 00:42:02;;;;;;;16.90;8.53;;;11.00;99.90;;;;;;5073129;28;20485;-70
2022/03/29 00:44:31;;;;;;;15.13;7.77;;;11.00;99.90;;;;;;5077169;28;20500;-70
2022/03/29 00:46:58;;;;;;;20.30;8.73;;;10.80;99.90;;;;;;5083665;28;20464;-70
2022/03/29 00:49:25;;;;;;;22.90;8.00;;;10.90;99.90;;;;;;5085277;28;20464;-70
2022/03/29 00:51:55;;;;;;;16.17;9.30;;;10.90;99.90;;;;;;5082404;28;20462;-70
2022/03/29 00:54:22;;;;;;;17.90;8.73;;;10.80;99.90;;;;;;5081104;28;20467;-70
2022/03/29 00:56:49;;;;;;;15.73;9.83;;;10.70;99.90;;;;;;5081075;28;20645;-70
2022/03/29 00:59:17;;;;;;;20.67;9.70;;;10.60;99.90;;;;;;5073623;28;20529;-70
2022/03/29 01:01:44;;;;;;;16.03;10.23;;;10.40;99.90;;;;;;5082076;28;20440;-70
2022/03/29 01:04:11;;;;;;;19.43;8.07;;;10.40;99.90;;;;;;5076957;28;20428;-70
2022/03/29 01:06:38;;;;;;;20.47;8.13;;;10.50;99.90;;;;;;5084073;28;20420;-70
2022/03/29 01:09:05;;;;;;;12.87;6.90;;;10.60;99.90;;;;;;5081203;28;20504;-70
2022/03/29 01:11:32;;;;;;;13.33;8.80;;;10.60;99.90;;;;;;5074058;28;20477;-70
2022/03/29 01:14:00;;;;;;;17.53;8.97;;;10.50;99.90;;;;;;5078148;28;20434;-71
2022/03/29 01:19:20;;;;;;;14.50;8.50;;;10.40;99.90;;;;;;5004178;28;20455;-71
2022/03/29 01:21:55;;;;;;;16.47;9.30;;;10.30;99.90;;;;;;5079194;28;20531;-71
2022/03/29 01:24:22;;;;;;;18.07;8.70;;;10.30;99.90;;;;;;5079359;28;20481;-71
2022/03/29 01:26:50;;;;;;;17.60;10.07;;;10.20;99.90;;;;;;5076023;28;20449;-71
2022/03/29 01:29:17;;;;;;;14.73;7.30;;;10.30;99.90;;;;;;5080035;28;20424;-71
2022/03/29 01:31:44;;;;;;;13.30;9.10;;;10.30;99.90;;;;;;5080251;28;20959;-71
2022/03/29 01:34:13;;;;;;;15.60;9.37;;;10.40;99.90;;;;;;5067241;28;20428;-71
2022/03/29 01:36:40;;;;;;;18.03;9.97;;;10.40;99.90;;;;;;5081279;28;20490;-71
2022/03/29 01:39:08;;;;;;;20.27;9.27;;;10.50;99.90;;;;;;5076281;28;20942;-71
2022/03/29 01:41:34;;;;;;;20.83;8.30;;;10.40;99.90;;;;;;5074904;28;20493;-70
2022/03/29 01:44:01;;;;;;;17.57;9.80;;;10.20;99.90;;;;;;5080772;28;20417;-70
2022/03/29 01:46:28;;;;;;;18.03;9.13;;;10.10;99.90;;;;;;5078125;28;20512;-70
2022/03/29 01:48:55;;;;;;;19.23;8.60;;;10.10;99.90;;;;;;5077986;28;20565;-70
2022/03/29 01:51:22;;;;;;;18.47;9.77;;;10.20;99.90;;;;;;5080835;28;20448;-70
2022/03/29 01:53:54;;;;;;;19.60;10.20;;;10.20;99.90;;;;;;5078395;28;20882;-70
2022/03/29 01:56:23;;;;;;;14.00;7.73;;;10.10;99.90;;;;;;5082594;28;20449;-70
2022/03/29 01:58:49;;;;;;;17.60;10.93;;;10.00;99.90;;;;;;5078135;28;20970;-70
2022/03/29 02:01:16;;;;;;;18.00;9.43;;;10.00;99.90;;;;;;5081912;28;20464;-70
2022/03/29 02:03:43;;;;;;;16.83;8.43;;;10.10;99.90;;;;;;5072834;28;20805;-70
2022/03/29 02:06:10;;;;;;;26.30;13.60;;;10.10;99.90;;;;;;5077885;28;20855;-71
2022/03/29 02:08:37;;;;;;;12.97;7.27;;;10.10;99.90;;;;;;5072473;28;20450;-70
2022/03/29 02:11:04;;;;;;;17.20;9.50;;;10.10;99.90;;;;;;5076426;28;20428;-70
2022/03/29 02:13:32;;;;;;;25.20;11.30;;;10.10;99.90;;;;;;5074101;28;20457;-71
2022/03/29 02:15:58;;;;;;;20.67;9.83;;;10.00;99.90;;;;;;5079865;28;20510;-70
2022/03/29 02:18:25;;;;;;;14.57;10.07;;;9.90;99.90;;;;;;5078146;28;20486;-71
2022/03/29 02:20:51;;;;;;;20.97;10.37;;;10.00;99.90;;;;;;5075729;28;20817;-70
2022/03/29 02:23:18;;;;;;;19.20;9.13;;;10.00;99.90;;;;;;5078985;28;20437;-71
2022/03/29 02:25:46;;;;;;;20.67;11.17;;;10.00;99.90;;;;;;5082137;28;20461;-71
2022/03/29 02:28:13;;;;;;;20.00;10.17;;;9.90;99.90;;;;;;5075247;28;20440;-70
2022/03/29 02:30:41;;;;;;;20.43;11.97;;;9.70;99.90;;;;;;5080860;28;20413;-70
2022/03/29 02:33:08;;;;;;;18.20;9.00;;;9.50;99.90;;;;;;5078796;28;20440;-71
2022/03/29 02:35:35;;;;;;;17.83;9.90;;;9.50;99.90;;;;;;5079027;28;20498;-70
2022/03/29 02:38:02;;;;;;;18.87;9.60;;;9.60;99.90;;;;;;5075390;28;20424;-70
2022/03/29 02:40:28;;;;;;;21.10;11.10;;;9.70;99.90;;;;;;5077913;28;20444;-70
2022/03/29 02:42:56;;;;;;;18.53;10.87;;;9.60;99.90;;;;;;5079323;28;20478;-70
2022/03/29 02:45:24;;;;;;;22.10;9.50;;;9.50;99.90;;;;;;5080254;28;20496;-70
2022/03/29 02:47:54;;;;;;;19.40;9.67;;;9.40;99.90;;;;;;5080641;28;20982;-70
2022/03/29 02:50:23;;;;;;;20.13;11.23;;;9.40;99.90;;;;;;5083867;28;20412;-70
2022/03/29 02:52:52;;;;;;;19.90;10.53;;;9.50;99.90;;;;;;5082215;28;21145;-70
2022/03/29 02:55:20;;;;;;;25.17;13.50;;;9.30;99.90;;;;;;5077650;28;20450;-70
2022/03/29 02:57:47;;;;;;;21.33;9.30;;;9.40;99.90;;;;;;5079651;28;20672;-70
2022/03/29 03:00:16;;;;;;;22.77;10.23;;;9.30;99.90;;;;;;5081227;28;20456;-71
2022/03/29 03:02:43;;;;;;;13.40;8.40;;;9.30;99.90;;;;;;5075068;28;21096;-71
2022/03/29 03:05:12;;;;;;;18.90;10.07;;;9.20;99.90;;;;;;5080356;28;20874;-71
2022/03/29 03:07:39;;;;;;;30.90;11.67;;;9.10;99.90;;;;;;5085065;28;20432;-71
2022/03/29 03:10:06;;;;;;;18.03;11.00;;;9.20;99.90;;;;;;5065955;28;20436;-71
2022/03/29 03:12:36;;;;;;;22.80;10.63;;;9.20;99.90;;;;;;5083034;28;20477;-71
2022/03/29 03:15:04;;;;;;;22.23;9.73;;;9.30;99.90;;;;;;5083653;28;20549;-71
2022/03/29 03:17:31;;;;;;;21.77;11.00;;;9.40;99.90;;;;;;5073472;28;20466;-70
2022/03/29 03:19:58;;;;;;;21.03;11.73;;;9.30;99.90;;;;;;5076326;28;20525;-70
2022/03/29 03:22:27;;;;;;;28.17;11.73;;;9.30;99.90;;;;;;5070491;28;20460;-70
2022/03/29 03:24:54;;;;;;;19.20;11.60;;;9.10;99.90;;;;;;5076589;28;20458;-70
2022/03/29 03:27:21;;;;;;;26.83;12.20;;;9.10;99.90;;;;;;5079880;28;20467;-71
2022/03/29 03:29:49;;;;;;;21.87;11.40;;;9.10;99.90;;;;;;5080617;28;20819;-71
2022/03/29 03:32:16;;;;;;;19.43;12.40;;;9.20;99.90;;;;;;5073159;28;20551;-70
2022/03/29 03:34:42;;;;;;;23.67;10.47;;;9.30;99.90;;;;;;5082875;28;20417;-71
2022/03/29 03:37:09;;;;;;;18.43;10.77;;;9.00;99.90;;;;;;5079207;28;20486;-71
2022/03/29 03:39:38;;;;;;;18.27;10.40;;;9.00;99.90;;;;;;5078446;28;20452;-71
2022/03/29 03:42:05;;;;;;;24.20;10.10;;;8.90;99.90;;;;;;5085528;28;20484;-70
2022/03/29 03:44:32;;;;;;;18.70;10.60;;;8.70;99.90;;;;;;5082204;28;20492;-71
2022/03/29 03:47:00;;;;;;;27.90;10.10;;;8.50;99.90;;;;;;5076155;28;20447;-70
2022/03/29 03:49:27;;;;;;;17.80;12.00;;;8.50;99.90;;;;;;5079711;28;20468;-70
2022/03/29 03:51:53;;;;;;;28.17;11.03;;;8.60;99.90;;;;;;5078200;28;20474;-70
2022/03/29 03:54:21;;;;;;;20.10;10.00;;;8.60;99.90;;;;;;5065500;28;20761;-70
2022/03/29 03:56:49;;;;;;;21.47;10.47;;;8.80;99.90;;;;;;5073279;28;20452;-71
2022/03/29 03:59:16;;;;;;;19.13;10.23;;;8.90;99.90;;;;;;5063748;28;20486;-70
2022/03/29 04:01:42;;;;;;;19.30;11.17;;;8.70;99.90;;;;;;5062934;28;20449;-70
2022/03/29 04:04:09;;;;;;;19.50;10.50;;;8.50;99.90;;;;;;5065926;28;20529;-70
2022/03/29 04:06:36;;;;;;;18.33;11.00;;;8.70;99.90;;;;;;5066981;28;20476;-71
2022/03/29 04:09:03;;;;;;;22.07;10.10;;;8.80;99.90;;;;;;5065244;28;28179;-70
2022/03/29 04:11:29;;;;;;;22.17;10.30;;;8.60;99.90;;;;;;5074350;28;20485;-70
2022/03/29 04:13:59;;;;;;;23.50;10.93;;;8.60;99.90;;;;;;5070618;28;20594;-70
2022/03/29 04:16:27;;;;;;;18.07;10.93;;;8.70;99.90;;;;;;5072251;28;20519;-70
2022/03/29 04:18:54;;;;;;;22.70;12.47;;;8.70;99.90;;;;;;5075300;28;20439;-70
2022/03/29 04:21:20;;;;;;;18.80;10.70;;;8.80;99.90;;;;;;5073839;28;20560;-70
2022/03/29 04:23:47;;;;;;;18.43;8.93;;;8.80;99.90;;;;;;5078749;28;20450;-70
2022/03/29 04:26:14;;;;;;;28.33;11.67;;;8.70;99.90;;;;;;5068642;28;20567;-71
2022/03/29 04:28:41;;;;;;;24.93;13.73;;;8.80;99.90;;;;;;5071499;28;21004;-70
2022/03/29 04:31:10;;;;;;;25.80;11.20;;;8.80;99.90;;;;;;5067340;28;20503;-71
2022/03/29 04:33:37;;;;;;;22.43;11.63;;;8.70;99.90;;;;;;5080692;28;20475;-70
2022/03/29 04:36:04;;;;;;;19.67;11.07;;;8.70;99.90;;;;;;5072168;28;20466;-71
2022/03/29 04:38:31;;;;;;;34.50;13.80;;;8.70;99.90;;;;;;5071614;28;20846;-71
2022/03/29 04:40:58;;;;;;;28.67;12.87;;;8.60;99.90;;;;;;5076562;28;21011;-70
2022/03/29 04:43:25;;;;;;;19.23;9.70;;;8.60;99.90;;;;;;5070715;28;21014;-70
2022/03/29 04:45:52;;;;;;;17.80;10.17;;;8.70;99.90;;;;;;5080556;28;20424;-70
2022/03/29 04:48:20;;;;;;;25.07;11.30;;;8.50;99.90;;;;;;5085462;22;1080690;-69
2022/03/29 04:50:46;;;;;;;23.33;12.33;;;8.50;99.90;;;;;;5100815;28;20196;-69
2022/03/29 04:53:14;;;;;;;27.80;9.83;;;8.40;99.90;;;;;;5089384;28;20929;-69
2022/03/29 04:55:41;;;;;;;20.50;11.07;;;8.50;99.90;;;;;;5100238;28;20476;-69
2022/03/29 04:58:07;;;;;;;19.97;11.50;;;8.30;99.90;;;;;;5089914;28;20464;-68
2022/03/29 05:00:34;;;;;;;22.17;11.77;;;8.20;99.90;;;;;;5077055;28;21100;-69
2022/03/29 05:03:01;;;;;;;25.40;11.53;;;8.40;99.90;;;;;;5069767;28;20979;-69
2022/03/29 05:05:29;;;;;;;30.17;11.73;;;8.30;99.90;;;;;;5079554;28;20435;-70
2022/03/29 05:07:55;;;;;;;37.20;12.30;;;8.40;99.90;;;;;;5072660;28;20517;-69
2022/03/29 05:10:22;;;;;;;34.63;10.80;;;8.30;99.90;;;;;;5074022;28;20501;-69
2022/03/29 05:12:51;;;;;;;19.23;10.40;;;8.30;99.90;;;;;;5076701;28;20424;-69
2022/03/29 05:15:20;;;;;;;22.60;10.27;;;8.20;99.90;;;;;;5075662;28;20472;-70
2022/03/29 05:17:47;;;;;;;24.67;13.00;;;8.30;99.90;;;;;;5079612;28;20456;-69
2022/03/29 05:20:16;;;;;;;12.63;7.97;;;8.20;99.90;;;;;;5067142;28;20482;-69
2022/03/29 05:22:45;;;;;;;24.43;12.47;;;8.00;99.90;;;;;;5071394;28;20947;-69
2022/03/29 05:25:12;;;;;;;17.17;8.20;;;7.80;99.90;;;;;;5070184;28;20424;-68
2022/03/29 05:27:39;;;;;;;28.77;12.10;;;7.70;99.90;;;;;;5073017;28;20777;-69
2022/03/29 05:30:07;;;;;;;25.30;13.40;;;7.70;99.90;;;;;;5063603;28;20882;-70
2022/03/29 05:32:34;;;;;;;22.40;9.80;;;7.80;99.90;;;;;;5069414;28;20836;-70
2022/03/29 05:35:00;;;;;;;19.67;9.47;;;7.90;99.90;;;;;;5083026;28;20478;-69
2022/03/29 05:37:27;;;;;;;19.53;10.10;;;7.90;99.90;;;;;;5082951;28;20436;-69
2022/03/29 05:39:55;;;;;;;28.03;14.27;;;7.80;99.90;;;;;;5075051;28;20429;-70
2022/03/29 05:42:22;;;;;;;27.83;14.57;;;7.90;99.90;;;;;;5080358;28;20436;-70
2022/03/29 05:44:49;;;;;;;22.43;11.57;;;7.90;99.90;;;;;;5076829;28;20520;-70
2022/03/29 05:49:59;;;;;;;21.37;9.70;;;7.70;99.90;;;;;;5076975;28;20607;-70
2022/03/29 05:52:26;;;;;;;23.23;13.03;;;7.80;99.90;;;;;;5082765;28;20532;-70
2022/03/29 05:54:54;;;;;;;22.10;8.87;;;7.70;99.90;;;;;;5079548;28;20593;-70
2022/03/29 05:57:21;;;;;;;33.63;15.40;;;7.70;99.90;;;;;;5084736;28;20570;-70
2022/03/29 05:59:47;;;;;;;29.83;10.67;;;7.60;99.90;;;;;;5074961;28;20926;-70
2022/03/29 06:02:14;;;;;;;28.57;13.47;;;7.70;99.90;;;;;;5079769;28;20557;-70
2022/03/29 06:04:41;;;;;;;28.30;14.50;;;7.50;99.90;;;;;;5074263;28;20930;-70
2022/03/29 06:07:08;;;;;;;28.80;13.73;;;7.60;99.90;;;;;;5064717;28;20723;-70
2022/03/29 06:09:35;;;;;;;32.47;16.13;;;7.60;99.90;;;;;;5084351;28;20468;-69
2022/03/29 06:12:05;;;;;;;51.03;14.70;;;7.60;99.90;;;;;;5075495;28;20563;-69
2022/03/29 06:14:32;;;;;;;32.17;12.47;;;7.70;99.90;;;;;;5077924;28;20433;-68
2022/03/29 06:17:00;;;;;;;23.57;10.87;;;7.90;99.90;;;;;;5080272;28;20460;-69
2022/03/29 06:19:27;;;;;;;51.07;16.50;;;7.90;99.90;;;;;;5085309;28;20908;-69
2022/03/29 06:21:54;;;;;;;48.67;16.30;;;7.70;99.90;;;;;;5083035;28;20974;-69
2022/03/29 06:24:20;;;;;;;54.63;19.43;;;7.80;99.90;;;;;;5067181;28;20429;-70
2022/03/29 06:26:47;;;;;;;47.80;17.00;;;7.80;99.90;;;;;;5070447;28;20540;-69
2022/03/29 06:29:15;;;;;;;58.00;21.33;;;7.90;99.90;;;;;;5084005;28;20539;-69
2022/03/29 06:31:42;;;;;;;66.20;18.53;;;7.70;99.90;;;;;;5075524;28;20425;-69
2022/03/29 06:34:09;;;;;;;61.93;17.27;;;7.80;99.90;;;;;;5075786;28;20520;-69
2022/03/29 06:36:35;;;;;;;71.40;22.40;;;8.00;99.90;;;;;;5078923;28;20878;-69
2022/03/29 06:39:02;;;;;;;58.40;17.93;;;8.00;99.90;;;;;;5080392;28;20428;-69
2022/03/29 06:41:30;;;;;;;57.57;20.67;;;8.20;99.90;;;;;;5072739;28;20532;-70
2022/03/29 06:43:57;;;;;;;57.33;18.97;;;8.10;99.90;;;;;;5083165;28;20745;-70
2022/03/29 06:46:25;;;;;;;59.17;18.07;;;8.10;99.90;;;;;;5080035;28;20421;-70
2022/03/29 06:48:52;;;;;;;81.17;23.13;;;8.20;99.90;;;;;;5083779;28;20432;-70
2022/03/29 06:51:18;;;;;;;61.77;20.87;;;8.40;99.90;;;;;;5070545;28;20436;-70
2022/03/29 06:53:45;;;;;;;93.33;23.27;;;8.50;99.90;;;;;;5072698;28;20602;-70
2022/03/29 06:56:15;;;;;;;55.60;13.70;;;8.40;99.90;;;;;;5078521;28;20546;-70
2022/03/29 06:58:41;;;;;;;67.43;21.20;;;8.40;99.90;;;;;;5078557;28;20467;-70
2022/03/29 07:01:08;;;;;;;74.93;24.13;;;8.10;99.90;;;;;;5068970;28;20495;-69
2022/03/29 07:03:36;;;;;;;54.73;19.87;;;8.00;99.90;;;;;;5072152;28;20447;-69
2022/03/29 07:06:03;;;;;;;50.60;19.97;;;8.30;99.90;;;;;;5075081;28;20991;-69
2022/03/29 07:08:31;;;;;;;53.27;19.50;;;8.20;99.90;;;;;;5070129;28;20978;-69
2022/03/29 07:13:42;;;;;;;47.50;20.33;;;8.50;99.90;;;;;;5072920;28;20457;-69
2022/03/29 07:16:09;;;;;;;26.50;12.13;;;8.40;99.90;;;;;;5071821;28;20845;-69
2022/03/29 07:18:37;;;;;;;32.93;17.27;;;8.20;99.90;;;;;;5075089;28;20434;-69
2022/03/29 07:21:04;;;;;;;46.63;19.80;;;8.10;99.90;;;;;;5081874;28;20453;-69
2022/03/29 07:23:31;;;;;;;41.47;19.73;;;8.20;99.90;;;;;;5081663;28;20497;-69
2022/03/29 07:25:57;;;;;;;46.17;20.43;;;8.20;99.90;;;;;;5079785;28;20825;-71
2022/03/29 07:28:24;;;;;;;44.80;17.87;;;8.40;99.90;;;;;;5073767;28;20516;-71
2022/03/29 07:30:51;;;;;;;29.00;13.20;;;8.40;99.90;;;;;;5076795;28;20460;-70
2022/03/29 07:33:18;;;;;;;36.80;15.50;;;8.50;99.90;;;;;;5076851;28;20438;-70
2022/03/29 07:35:47;;;;;;;38.13;14.23;;;8.50;99.90;;;;;;5074979;28;20552;-69
2022/03/29 07:38:14;;;;;;;37.73;13.77;;;8.40;99.90;;;;;;5084676;28;20437;-71
2022/03/29 07:40:42;;;;;;;23.30;12.00;;;8.50;99.90;;;;;;5082625;28;20462;-70
2022/03/29 07:43:11;;;;;;;30.30;14.73;;;8.50;99.90;;;;;;5073582;28;20474;-69
2022/03/29 07:45:38;;;;;;;38.90;11.63;;;8.50;99.90;;;;;;5074111;28;20440;-70
2022/03/29 07:48:05;;;;;;;28.70;14.53;;;8.60;99.90;;;;;;5073857;28;20460;-70
2022/03/29 07:50:34;;;;;;;25.60;14.67;;;8.50;99.90;;;;;;5072698;28;20501;-69
2022/03/29 07:53:05;;;;;;;22.43;12.70;;;8.50;99.90;;;;;;5074266;28;20439;-70
2022/03/29 07:55:33;;;;;;;28.73;14.67;;;8.40;99.90;;;;;;5067995;28;20458;-69
2022/03/29 07:58:00;;;;;;;30.80;14.70;;;8.40;99.90;;;;;;5068172;28;20455;-68
2022/03/29 08:00:32;;;;;;;26.00;8.87;;;8.30;99.90;;;;;;5069554;28;20513;-68
2022/03/29 08:03:00;;;;;;;27.50;13.07;;;8.40;99.90;;;;;;5074518;28;20818;-69
2022/03/29 08:05:29;;;;;;;18.30;7.40;;;8.30;99.90;;;;;;5057895;28;20464;-69
2022/03/29 08:07:57;;;;;;;14.60;9.97;;;8.40;99.90;;;;;;5071437;28;20569;-68
2022/03/29 08:10:25;;;;;;;15.53;8.20;;;8.30;99.90;;;;;;5068372;28;20446;-68
2022/03/29 08:12:52;;;;;;;16.10;8.93;;;8.10;99.90;;;;;;5066740;28;20428;-68
2022/03/29 08:15:19;;;;;;;11.77;8.37;;;8.10;99.90;;;;;;5078339;28;20898;-69
2022/03/29 08:17:45;;;;;;;29.70;13.50;;;8.10;99.90;;;;;;5079799;28;20539;-69
2022/03/29 08:20:12;;;;;;;28.77;14.23;;;8.20;99.90;;;;;;5074967;28;20441;-69
2022/03/29 08:22:44;;;;;;;32.77;13.60;;;8.50;99.90;;;;;;5081146;28;20505;-69
2022/03/29 08:25:12;;;;;;;32.77;16.23;;;8.50;99.90;;;;;;5088998;28;20456;-69
2022/03/29 08:27:40;;;;;;;31.03;15.97;;;8.70;99.90;;;;;;5082700;28;20449;-69
2022/03/29 08:30:08;;;;;;;34.33;15.90;;;8.60;99.90;;;;;;5082674;28;20430;-69
2022/03/29 08:32:35;;;;;;;39.70;14.93;;;8.60;99.90;;;;;;5082792;28;20416;-69
2022/03/29 08:35:01;;;;;;;33.30;13.47;;;8.70;99.90;;;;;;5087489;28;20477;-69
2022/03/29 08:37:28;;;;;;;38.80;16.90;;;8.70;99.90;;;;;;5077964;28;20491;-69
2022/03/29 08:39:55;;;;;;;41.77;18.57;;;8.70;99.90;;;;;;5084453;28;20489;-69
2022/03/29 08:42:23;;;;;;;28.90;14.50;;;8.60;99.90;;;;;;5078369;28;20736;-70
2022/03/29 08:44:51;;;;;;;49.67;16.20;;;8.80;99.90;;;;;;5066616;28;20804;-71
2022/03/29 08:47:18;;;;;;;42.37;16.30;;;9.00;99.90;;;;;;5077691;28;20808;-68
2022/03/29 08:49:48;;;;;;;31.57;16.30;;;9.10;99.90;;;;;;5086505;28;20471;-68
2022/03/29 08:52:17;;;;;;;44.50;17.00;;;9.30;99.90;;;;;;5080759;28;20445;-69
2022/03/29 08:54:44;;;;;;;48.37;16.63;;;9.20;99.90;;;;;;5069014;28;20493;-68
2022/03/29 08:57:11;;;;;;;39.53;17.47;;;9.20;99.90;;;;;;5075359;28;20447;-69
2022/03/29 08:59:40;;;;;;;35.80;14.57;;;9.10;99.90;;;;;;5079657;28;20730;-69
2022/03/29 09:02:12;;;;;;;36.60;15.50;;;9.00;99.90;;;;;;5063203;28;20566;-69
2022/03/29 09:04:38;;;;;;;23.97;10.80;;;8.90;99.90;;;;;;5072656;28;20651;-68
2022/03/29 09:07:05;;;;;;;35.70;18.33;;;8.90;99.90;;;;;;5074428;28;20490;-69
2022/03/29 09:09:33;;;;;;;47.60;14.60;;;8.70;99.90;;;;;;5065080;28;20466;-69
2022/03/29 09:12:09;;;;;;;43.70;19.93;;;8.70;99.90;;;;;;5083867;28;20469;-69
2022/03/29 09:14:50;;;;;;;45.00;18.30;;;8.60;99.90;;;;;;5085237;28;20449;-69
2022/03/29 09:17:30;;;;;;;50.70;19.60;;;8.80;99.90;;;;;;5082695;28;20523;-69
2022/03/29 09:19:57;;;;;;;39.33;15.90;;;8.90;99.90;;;;;;5086586;28;20744;-70
2022/03/29 09:22:43;;;;;;;42.30;17.47;;;9.00;99.90;;;;;;5064677;28;20541;-69
2022/03/29 09:25:13;;;;;;;23.17;12.93;;;9.10;99.90;;;;;;5073388;28;20438;-69
2022/03/29 09:28:10;;;;;;;23.87;11.23;;;9.10;99.90;;;;;;5079846;28;20829;-69
2022/03/29 09:30:39;;;;;;;40.93;17.30;;;8.90;99.90;;;;;;5038199;28;20455;-69
2022/03/29 09:33:09;;;;;;;45.83;17.47;;;9.00;99.90;;;;;;5062034;28;20522;-69
2022/03/29 09:35:37;;;;;;;35.03;19.67;;;9.30;99.90;;;;;;5066327;28;20897;-69
2022/03/29 09:38:22;;;;;;;39.67;17.00;;;9.30;99.90;;;;;;5076143;28;20441;-69
2022/03/29 09:40:49;;;;;;;41.97;14.17;;;9.20;99.90;;;;;;5072750;28;20482;-69
2022/03/29 09:43:15;;;;;;;33.60;15.40;;;9.10;99.90;;;;;;5075118;28;20543;-69
2022/03/29 09:45:48;;;;;;;34.33;16.00;;;9.20;99.90;;;;;;5069206;28;20422;-69
2022/03/29 09:48:31;;;;;;;54.37;20.13;;;9.30;99.90;;;;;;5085409;28;20484;-69
2022/03/29 09:51:15;;;;;;;38.87;15.37;;;9.40;99.90;;;;;;5079079;28;20521;-69
2022/03/29 09:53:44;;;;;;;39.17;13.33;;;9.70;99.90;;;;;;5074329;28;20981;-69
2022/03/29 09:56:12;;;;;;;22.40;11.20;;;9.60;99.90;;;;;;5078596;28;20799;-69
2022/03/29 09:58:39;;;;;;;43.33;16.77;;;9.70;99.90;;;;;;5079301;28;21006;-69
2022/03/29 10:01:07;;;;;;;42.77;15.90;;;9.40;99.90;;;;;;5078901;28;20444;-69
2022/03/29 10:03:37;;;;;;;43.73;16.70;;;9.40;99.90;;;;;;5076146;28;20534;-69
2022/03/29 10:06:06;;;;;;;38.53;17.27;;;9.40;99.90;;;;;;5074534;28;20510;-70
2022/03/29 10:11:21;;;;;;;48.23;18.60;;;9.30;99.90;;;;;;5082512;28;20449;-69
2022/03/29 10:13:48;;;;;;;49.57;20.33;;;9.20;99.90;;;;;;5083638;28;20416;-69
2022/03/29 10:16:16;;;;;;;39.90;17.20;;;9.50;99.90;;;;;;5074704;28;20469;-70
2022/03/29 10:18:46;;;;;;;35.60;16.27;;;9.50;99.90;;;;;;5081054;28;20484;-70
2022/03/29 10:21:14;;;;;;;31.90;14.40;;;9.60;99.90;;;;;;5078067;28;20458;-69
2022/03/29 10:23:45;;;;;;;40.90;19.30;;;9.90;99.90;;;;;;5080304;28;20456;-70
2022/03/29 10:26:17;;;;;;;40.27;14.83;;;9.90;99.90;;;;;;5077351;28;20759;-69
2022/03/29 10:28:45;;;;;;;56.67;15.33;;;9.70;99.90;;;;;;5073305;28;21742;-69
2022/03/29 10:31:33;;;;;;;34.73;16.57;;;9.80;99.90;;;;;;5079405;28;20428;-70
2022/03/29 10:34:18;;;;;;;35.20;13.93;;;9.70;99.90;;;;;;5055659;28;20461;-69
2022/03/29 10:37:09;;;;;;;37.90;12.20;;;9.90;99.90;;;;;;5071518;28;20470;-70
2022/03/29 10:40:01;;;;;;;22.53;12.73;;;9.90;99.90;;;;;;5074390;28;20460;-70
2022/03/29 10:42:30;;;;;;;25.77;11.03;;;9.60;99.90;;;;;;5076634;28;20482;-71
2022/03/29 10:45:02;;;;;;;27.87;13.57;;;9.60;99.90;;;;;;5075788;28;20466;-70
2022/03/29 10:47:30;;;;;;;27.17;13.00;;;9.50;99.90;;;;;;5086662;28;20605;-71
2022/03/29 10:52:37;;;;;;;26.07;10.90;;;9.60;99.90;;;;;;5071269;28;20489;-71
2022/03/29 10:55:27;;;;;;;31.10;12.53;;;9.70;99.90;;;;;;5077512;28;20451;-70
2022/03/29 10:58:12;;;;;;;27.80;12.30;;;9.80;99.90;;;;;;5077167;28;20494;-70
2022/03/29 11:00:41;;;;;;;36.30;13.03;;;9.80;99.90;;;;;;5074895;28;20464;-70
2022/03/29 11:03:14;;;;;;;31.40;14.87;;;10.00;99.90;;;;;;5075251;28;20557;-69
2022/03/29 11:06:07;;;;;;;36.97;13.70;;;10.20;99.90;;;;;;5076450;28;20440;-69
2022/03/29 11:08:37;;;;;;;24.03;13.20;;;10.50;99.90;;;;;;5067683;28;20420;-69
2022/03/29 11:11:05;;;;;;;33.73;13.90;;;10.10;99.90;;;;;;5073462;28;20489;-70
2022/03/29 11:13:33;;;;;;;43.07;16.07;;;10.00;99.90;;;;;;5083725;28;20450;-69
2022/03/29 11:16:21;;;;;;;35.53;14.67;;;10.00;99.90;;;;;;5074279;28;20442;-70
2022/03/29 11:18:47;;;;;;;40.73;16.17;;;10.30;99.90;;;;;;5075818;28;20458;-70
2022/03/29 11:21:30;;;;;;;31.20;14.07;;;10.20;99.90;;;;;;5082643;28;20474;-70
2022/03/29 11:23:59;;;;;;;31.00;12.10;;;10.20;99.90;;;;;;5077051;28;20486;-69
2022/03/29 11:26:27;;;;;;;36.67;12.63;;;10.20;99.90;;;;;;5082886;28;20458;-70
2022/03/29 11:28:55;;;;;;;27.27;12.57;;;10.20;99.90;;;;;;5075808;28;20534;-70
2022/03/29 11:31:23;;;;;;;28.07;15.77;;;10.60;99.90;;;;;;5076688;28;21108;-70
2022/03/29 11:33:51;;;;;;;31.40;14.37;;;10.70;99.90;;;;;;5082170;28;20442;-70
2022/03/29 11:36:19;;;;;;;21.77;11.70;;;10.90;99.90;;;;;;5080462;28;20545;-70
2022/03/29 11:38:46;;;;;;;30.70;11.30;;;10.90;99.90;;;;;;5076407;28;20458;-70
2022/03/29 11:41:25;;;;;;;28.30;15.03;;;10.80;99.90;;;;;;5078934;28;20503;-70
2022/03/29 11:43:57;;;;;;;27.13;12.30;;;10.70;99.90;;;;;;5080377;28;21250;-69
2022/03/29 11:46:24;;;;;;;18.50;10.60;;;10.90;99.90;;;;;;5075572;28;20450;-74
2022/03/29 11:48:52;;;;;;;35.53;13.10;;;11.00;99.90;;;;;;5074553;28;20992;-74
2022/03/29 11:51:28;;;;;;;16.70;8.23;;;11.00;99.90;;;;;;5077368;28;20473;-73
2022/03/29 11:53:58;;;;;;;24.00;11.20;;;11.10;99.90;;;;;;5079343;28;20540;-74
2022/03/29 11:56:27;;;;;;;27.23;12.80;;;11.10;99.90;;;;;;5078614;28;20450;-75
2022/03/29 11:58:56;;;;;;;24.83;11.57;;;11.30;99.90;;;;;;5078804;28;20503;-74
2022/03/29 12:01:27;;;;;;;28.07;14.00;;;11.40;99.90;;;;;;5080058;28;20855;-75
2022/03/29 12:03:55;;;;;;;28.07;11.60;;;11.20;99.90;;;;;;5079169;28;20477;-75
2022/03/29 12:06:25;;;;;;;30.40;14.30;;;11.40;99.90;;;;;;5086212;28;20438;-74
2022/03/29 12:08:55;;;;;;;22.30;10.13;;;11.40;99.90;;;;;;5088232;28;20451;-74
2022/03/29 12:11:25;;;;;;;19.83;11.77;;;11.60;99.90;;;;;;5084111;28;20477;-75
2022/03/29 12:14:08;;;;;;;24.97;12.00;;;11.50;99.90;;;;;;5080700;28;20417;-74
2022/03/29 12:16:42;;;;;;;30.80;13.37;;;11.50;99.90;;;;;;5081340;28;20545;-73
2022/03/29 12:19:14;;;;;;;26.20;12.73;;;11.60;99.90;;;;;;5078597;28;20450;-75
2022/03/29 12:21:44;;;;;;;27.23;12.43;;;11.60;99.90;;;;;;5080713;28;20539;-74
2022/03/29 12:24:16;;;;;;;19.00;10.40;;;11.70;99.90;;;;;;5073744;28;20829;-75
2022/03/29 12:26:44;;;;;;;26.50;12.10;;;11.90;99.90;;;;;;5077309;28;20504;-74
2022/03/29 12:29:16;;;;;;;35.27;13.23;;;11.70;99.90;;;;;;5081237;28;20453;-74
2022/03/29 12:31:44;;;;;;;26.70;11.83;;;11.60;99.90;;;;;;5073535;28;20469;-72
2022/03/29 12:34:14;;;;;;;25.50;12.23;;;11.40;99.90;;;;;;5081349;28;20547;-73
2022/03/29 12:36:41;;;;;;;26.93;11.60;;;11.80;99.90;;;;;;5079241;28;20446;-77
2022/03/29 12:39:16;;;;;;;24.33;12.47;;;12.00;99.90;;;;;;5083571;28;20459;-76
2022/03/29 12:41:51;;;;;;;20.60;10.23;;;12.20;99.90;;;;;;5083362;28;21008;-76
2022/03/29 12:44:36;;;;;;;25.80;13.67;;;12.60;99.90;;;;;;5090114;28;20477;-76
2022/03/29 12:47:04;;;;;;;28.80;13.30;;;12.70;99.90;;;;;;5093432;28;20450;-74
2022/03/29 12:49:32;;;;;;;23.63;11.00;;;12.80;99.90;;;;;;5085458;28;20450;-76
2022/03/29 12:52:01;;;;;;;22.50;11.40;;;12.90;99.90;;;;;;5085929;28;20452;-77
2022/03/29 12:54:35;;;;;;;23.63;11.77;;;12.90;99.90;;;;;;5075460;28;20447;-76
2022/03/29 12:57:04;;;;;;;24.20;11.47;;;12.80;99.90;;;;;;5079145;28;20446;-74